< < Back
Terminal Aerodrome Forecast


Current Version              Previous Versions:   1  2  3  4  5  6  7  8  9  

Terminal Aerodrome Forecast

859
FTUS42 KFFC 232300
TAFCSG
TAF
KCSG 232320Z 2400/2424 33003KT P6SM SCT250
     FM241600 33004KT P6SM FEW200=

Latest METAR

034
SAUS70 KWBC 241500 RRA
MTRCSG
METAR KCSG 241451Z 12004KT 10SM CLR 16/09 A3007 RMK AO2 SLP180 T01610089
50001


USA.gov is the U.S. government's official web portal to all federal, state and local government web resources and services.